createdAt,value
2018-11-01T00:02:09.806Z,8.37
2018-11-01T00:07:12.970Z,9.20
2018-11-01T00:12:16.074Z,7.30
2018-11-01T00:17:19.146Z,8.97
2018-11-01T00:22:22.227Z,8.37
2018-11-01T00:27:25.355Z,7.50
2018-11-01T00:32:28.467Z,8.17
2018-11-01T00:37:31.547Z,6.27
2018-11-01T00:42:34.630Z,7.37
2018-11-01T00:47:37.884Z,5.70
2018-11-01T00:52:41.499Z,9.13
2018-11-01T00:57:44.633Z,6.33
2018-11-01T01:02:47.716Z,9.60
2018-11-01T01:07:50.787Z,6.13
2018-11-01T01:12:53.962Z,6.33
2018-11-01T01:17:57.038Z,6.77
2018-11-01T01:23:00.110Z,7.70
2018-11-01T01:28:03.192Z,5.80
2018-11-01T01:33:06.287Z,5.17
2018-11-01T01:38:09.374Z,4.97
2018-11-01T01:43:12.458Z,5.10
2018-11-01T01:48:15.546Z,4.63
2018-11-01T01:53:18.621Z,7.10
2018-11-01T01:58:21.715Z,7.30
2018-11-01T02:08:57.191Z,8.27
2018-11-01T02:14:00.283Z,7.27
2018-11-01T02:19:03.354Z,6.97
2018-11-01T02:24:06.519Z,6.77
2018-11-01T02:29:09.579Z,7.97
2018-11-01T02:34:12.695Z,9.87
2018-11-01T02:39:15.767Z,8.23
2018-11-01T02:44:18.852Z,7.60
2018-11-01T02:49:21.931Z,8.73
2018-11-01T02:54:25.031Z,8.67
2018-11-01T02:59:28.187Z,9.60
2018-11-01T03:04:31.216Z,9.10
2018-11-01T03:09:34.305Z,13.10
2018-11-01T03:14:37.455Z,10.57
2018-11-01T03:19:40.562Z,9.47
2018-11-01T03:24:43.643Z,9.43
2018-11-01T03:29:46.745Z,9.77
2018-11-01T03:34:49.852Z,13.80
2018-11-01T03:39:52.938Z,8.50
2018-11-01T03:44:56.026Z,9.67
2018-11-01T03:49:59.120Z,8.40
2018-11-01T03:55:02.225Z,7.90
2018-11-01T04:00:09.010Z,7.20
2018-11-01T04:05:12.097Z,10.07
2018-11-01T04:10:15.173Z,7.97
2018-11-01T04:15:18.327Z,8.10
2018-11-01T04:20:21.329Z,8.83
2018-11-01T04:25:24.419Z,7.97
2018-11-01T04:30:27.514Z,10.90
2018-11-01T04:35:30.761Z,8.60
2018-11-01T04:40:33.904Z,8.20
2018-11-01T04:45:36.929Z,10.33
2018-11-01T04:50:40.013Z,8.07
2018-11-01T04:55:43.160Z,11.37
2018-11-01T05:00:46.248Z,11.80
2018-11-01T05:05:49.342Z,9.23
2018-11-01T05:10:52.421Z,12.03
2018-11-01T05:15:55.559Z,9.90
2018-11-01T05:20:58.651Z,10.57
2018-11-01T05:26:01.856Z,10.13
2018-11-01T05:31:09.650Z,12.53
2018-11-01T05:36:12.946Z,11.50
2018-11-01T05:41:16.232Z,11.40
2018-11-01T05:46:20.158Z,11.97
2018-11-01T05:51:23.224Z,10.87
2018-11-01T05:56:26.352Z,10.10
2018-11-01T06:01:31.817Z,11.03
2018-11-01T06:06:34.960Z,12.77
2018-11-01T06:11:38.034Z,11.33
2018-11-01T06:16:41.104Z,9.80
2018-11-01T06:21:44.194Z,11.53
2018-11-01T06:26:47.283Z,13.33
2018-11-01T06:31:50.367Z,13.37
2018-11-01T06:36:53.445Z,12.77
2018-11-01T06:41:56.527Z,11.70
2018-11-01T06:46:59.637Z,11.83
2018-11-01T06:52:02.727Z,13.43
2018-11-01T06:57:05.884Z,11.07
2018-11-01T07:02:08.975Z,13.47
2018-11-01T07:07:12.074Z,12.87
2018-11-01T07:12:15.157Z,16.80
2018-11-01T07:17:18.439Z,13.50
2018-11-01T07:22:21.447Z,11.70
2018-11-01T07:27:24.561Z,12.30
2018-11-01T07:32:27.666Z,14.87
2018-11-01T07:37:30.758Z,14.37
2018-11-01T07:42:33.837Z,16.30
2018-11-01T07:47:36.999Z,12.37
2018-11-01T07:52:40.580Z,15.00
2018-11-01T07:57:43.692Z,15.77
2018-11-01T08:02:47.507Z,19.90
2018-11-01T08:07:50.589Z,20.57
2018-11-01T08:12:53.669Z,20.73
2018-11-01T08:17:56.822Z,19.97
2018-11-01T08:22:59.912Z,25.43
2018-11-01T08:28:03.055Z,25.30
2018-11-01T08:33:06.140Z,25.57
2018-11-01T08:38:09.240Z,24.50
2018-11-01T08:43:12.325Z,22.50
2018-11-01T08:48:15.413Z,26.80
2018-11-01T08:53:18.606Z,27.70
2018-11-01T08:58:21.680Z,22.77
2018-11-01T09:03:24.776Z,25.47
2018-11-01T09:08:27.857Z,22.77
2018-11-01T09:13:30.931Z,27.07
2018-11-01T09:18:34.015Z,26.63
2018-11-01T09:23:37.098Z,33.43
2018-11-01T09:28:40.432Z,24.40
2018-11-01T09:33:43.534Z,30.23
2018-11-01T09:38:46.610Z,28.80
2018-11-01T09:43:49.685Z,26.37
2018-11-01T09:48:52.797Z,30.70
2018-11-01T09:53:55.865Z,29.47
2018-11-01T09:58:58.949Z,27.50
2018-11-01T10:04:02.020Z,25.93
2018-11-01T10:09:06.733Z,25.50
2018-11-01T10:14:10.595Z,24.40
2018-11-01T10:19:13.735Z,27.07
2018-11-01T10:24:16.787Z,25.17
2018-11-01T10:29:19.864Z,23.93
2018-11-01T10:34:22.989Z,25.13
2018-11-01T10:39:26.081Z,23.60
2018-11-01T10:44:29.156Z,25.93
2018-11-01T10:49:32.260Z,29.57
2018-11-01T10:54:35.352Z,26.00
2018-11-01T10:59:38.609Z,24.43
2018-11-01T11:04:41.709Z,21.13
2018-11-01T11:09:44.858Z,19.97
2018-11-01T11:14:47.978Z,22.97
2018-11-01T11:19:51.082Z,24.87
2018-11-01T11:24:54.230Z,23.77
2018-11-01T11:29:57.394Z,22.70
2018-11-01T11:35:00.441Z,23.53
2018-11-01T11:40:03.571Z,21.47
2018-11-01T11:45:07.217Z,25.53
2018-11-01T11:50:11.522Z,24.57
2018-11-01T11:55:14.747Z,23.27
2018-11-01T12:00:17.911Z,24.17
2018-11-01T12:05:21.072Z,20.93
2018-11-01T12:10:24.103Z,23.83
2018-11-01T12:15:27.203Z,27.00
2018-11-01T12:20:30.302Z,28.70
2018-11-01T12:25:33.414Z,21.70
2018-11-01T12:30:36.509Z,23.73
2018-11-01T12:35:39.689Z,21.20
2018-11-01T12:40:42.745Z,23.87
2018-11-01T12:45:45.843Z,24.37
2018-11-01T12:50:48.961Z,20.00
2018-11-01T12:55:52.051Z,21.87
2018-11-01T13:00:55.207Z,23.20
2018-11-01T13:05:58.311Z,24.93
2018-11-01T13:11:01.413Z,21.53
2018-11-01T13:16:04.767Z,22.43
2018-11-01T13:21:08.989Z,24.27
2018-11-01T13:26:12.172Z,24.43
2018-11-01T13:31:15.309Z,23.43
2018-11-01T13:36:18.607Z,20.70
2018-11-01T13:41:21.944Z,21.37
2018-11-01T13:46:24.971Z,19.83
2018-11-01T13:51:28.118Z,22.47
2018-11-01T13:56:31.496Z,18.57
2018-11-01T14:01:34.582Z,23.50
2018-11-01T14:06:39.877Z,19.60
2018-11-01T14:11:43.041Z,18.93
2018-11-01T14:16:46.148Z,18.97
2018-11-01T14:21:49.276Z,20.73
2018-11-01T14:26:52.402Z,20.93
2018-11-01T14:31:55.682Z,18.30
2018-11-01T14:36:59.024Z,17.80
2018-11-01T14:42:02.241Z,18.60
2018-11-01T14:47:05.780Z,24.57
2018-11-01T14:52:09.144Z,19.77
2018-11-01T14:57:13.661Z,18.93
2018-11-01T15:02:15.502Z,24.50
2018-11-01T15:07:18.601Z,27.37
2018-11-01T15:12:21.956Z,21.83
2018-11-01T15:17:25.176Z,23.47
2018-11-01T15:22:28.422Z,27.60
2018-11-01T15:27:31.561Z,21.63
2018-11-01T15:32:47.566Z,25.17
2018-11-01T15:37:50.688Z,28.77
2018-11-01T15:42:53.873Z,27.07
2018-11-01T15:47:57.009Z,26.57
2018-11-01T15:53:00.207Z,22.03
2018-11-01T15:58:03.519Z,28.83
2018-11-01T16:03:06.685Z,29.23
2018-11-01T16:08:09.902Z,30.35
2018-11-01T16:13:13.035Z,29.10
2018-11-01T16:18:16.185Z,28.70
2018-11-01T16:23:19.518Z,27.60
2018-11-01T16:28:22.677Z,25.93
2018-11-01T16:33:25.828Z,29.57
2018-11-01T16:38:29.090Z,29.57
2018-11-01T16:43:32.361Z,29.07
2018-11-01T16:48:35.543Z,30.63
2018-11-01T16:53:38.724Z,25.47
2018-11-01T16:58:41.881Z,26.13
2018-11-01T17:03:45.011Z,30.83
2018-11-01T17:08:48.209Z,24.57
2018-11-01T17:13:51.349Z,27.80
2018-11-01T17:18:54.480Z,21.20
2018-11-01T17:23:57.623Z,23.10
2018-11-01T17:29:00.764Z,26.73
2018-11-01T17:34:05.377Z,27.47
2018-11-01T17:39:09.032Z,27.10
2018-11-01T17:44:12.161Z,27.90
2018-11-01T17:49:15.312Z,24.70
2018-11-01T17:54:18.429Z,23.90
2018-11-01T17:59:21.513Z,23.50
2018-11-01T18:04:24.621Z,22.43
2018-11-01T18:09:27.749Z,22.53
2018-11-01T18:14:31.001Z,21.77
2018-11-01T18:19:34.269Z,24.13
2018-11-01T18:24:37.456Z,25.67
2018-11-01T18:29:40.599Z,20.60
2018-11-01T18:34:43.905Z,22.33
2018-11-01T18:40:00.340Z,27.10
2018-11-01T18:50:38.809Z,27.33
2018-11-01T18:55:42.632Z,25.53
2018-11-01T19:00:45.896Z,26.20
2018-11-01T19:05:49.152Z,27.70
2018-11-01T19:11:06.062Z,25.13
2018-11-01T19:16:09.476Z,28.90
2018-11-01T19:21:12.736Z,24.30
2018-11-01T19:26:16.734Z,27.83
2018-11-01T19:31:20.566Z,31.30
2018-11-01T19:36:24.331Z,30.80
2018-11-01T19:41:28.034Z,25.20
2018-11-01T19:46:31.432Z,28.27
2018-11-01T19:51:35.035Z,25.63
2018-11-01T19:56:38.549Z,24.03
2018-11-01T20:01:41.762Z,22.80
2018-11-01T20:06:46.300Z,23.37
2018-11-01T20:11:49.399Z,25.83
2018-11-01T20:16:53.297Z,24.33
2018-11-01T20:21:57.044Z,27.77
2018-11-01T20:27:02.298Z,21.73
2018-11-01T20:32:05.578Z,22.13
2018-11-01T20:37:09.276Z,20.13
2018-11-01T20:42:12.654Z,19.17
2018-11-01T20:58:13.341Z,19.40
2018-11-01T21:03:16.440Z,16.97
2018-11-01T21:08:19.653Z,17.73
2018-11-01T21:13:22.688Z,15.67
2018-11-01T21:18:25.763Z,18.23
2018-11-01T21:23:28.845Z,18.77
2018-11-01T21:28:31.915Z,15.77
2018-11-01T21:33:35.018Z,15.63
2018-11-01T21:38:38.225Z,14.33
2018-11-01T21:43:41.292Z,14.77
2018-11-01T21:48:44.384Z,14.17
2018-11-01T21:53:47.499Z,11.13
2018-11-01T21:58:50.729Z,12.03
2018-11-01T22:03:53.814Z,12.07
2018-11-01T22:08:56.941Z,12.20
2018-11-01T22:14:00.046Z,11.20
2018-11-01T22:19:03.119Z,11.60
2018-11-01T22:24:06.438Z,11.27
2018-11-01T22:29:30.586Z,14.80
2018-11-01T22:34:33.789Z,14.67
2018-11-01T22:39:36.972Z,12.30
2018-11-01T22:44:40.061Z,15.30
2018-11-01T22:49:43.165Z,13.37
2018-11-01T22:54:46.281Z,12.47
2018-11-01T22:59:49.434Z,14.27
2018-11-01T23:04:52.483Z,15.87
2018-11-01T23:09:55.595Z,12.73
2018-11-01T23:14:58.682Z,10.03
2018-11-01T23:20:01.790Z,10.97
2018-11-01T23:25:05.198Z,10.63
2018-11-01T23:30:08.293Z,13.77
2018-11-01T23:35:11.877Z,11.17
2018-11-01T23:40:20.504Z,11.83
2018-11-01T23:45:28.960Z,15.10
2018-11-01T23:50:37.506Z,13.00
2018-11-01T23:55:40.596Z,11.87
